Time;durP1;ratioP1;P1;durP2;ratioP2;P2;SDS_P1;SDS_P2;PMS_P1;PMS_P2;Temp;Humidity;BMP_temperature;BMP_pressure;BME280_temperature;BME280_humidity;BME280_pressure;Samples;Min_cycle;Max_cycle;Signal;HPM_P1;HPM_P2
2022/11/06 00:00:16;;;;;;;122.07;25.05;;;7.20;1.00;;;;;;5070988;28;20614;-72
2022/11/06 00:02:44;;;;;;;141.32;27.90;;;6.70;1.00;;;;;;5071617;28;20292;-72
2022/11/06 00:07:56;;;;;;;79.82;19.98;;;6.10;1.00;;;;;;5071443;28;20288;-73
2022/11/06 00:10:24;;;;;;;106.32;21.35;;;6.20;1.00;;;;;;5070700;28;20205;-70
2022/11/06 00:12:50;;;;;;;108.10;22.35;;;6.30;1.00;;;;;;5071671;28;20231;-71
2022/11/06 00:15:17;;;;;;;84.20;19.65;;;5.90;1.00;;;;;;5075420;28;20211;-71
2022/11/06 00:17:44;;;;;;;83.93;21.35;;;5.60;1.00;;;;;;5075476;28;20668;-71
2022/11/06 00:20:11;;;;;;;82.55;20.38;;;5.60;1.00;;;;;;5074566;28;20247;-71
2022/11/06 00:22:38;;;;;;;81.80;21.27;;;5.60;1.00;;;;;;5075081;28;20219;-73
2022/11/06 00:25:07;;;;;;;79.82;18.90;;;5.80;1.00;;;;;;5075491;28;20576;-71
2022/11/06 00:27:36;;;;;;;81.15;19.20;;;5.80;1.00;;;;;;5075257;28;20294;-71
2022/11/06 00:30:04;;;;;;;79.03;18.85;;;5.60;1.00;;;;;;5074466;28;20228;-71
2022/11/06 00:32:31;;;;;;;79.72;18.65;;;5.60;1.00;;;;;;5075409;28;20208;-71
2022/11/06 00:34:57;;;;;;;80.75;19.55;;;5.80;1.00;;;;;;5075033;28;20696;-71
2022/11/06 00:37:24;;;;;;;81.00;20.00;;;5.60;1.00;;;;;;5074820;28;20264;-72
2022/11/06 00:39:51;;;;;;;85.07;17.60;;;5.60;1.00;;;;;;5074003;28;20235;-71
2022/11/06 00:42:19;;;;;;;80.00;20.02;;;6.00;1.00;;;;;;5074850;28;20783;-71
2022/11/06 00:44:46;;;;;;;79.55;17.73;;;6.50;1.00;;;;;;5075191;28;20207;-71
2022/11/06 00:47:13;;;;;;;77.97;17.45;;;6.80;1.00;;;;;;5074671;28;20225;-71
2022/11/06 00:49:39;;;;;;;77.10;18.00;;;7.10;1.00;;;;;;5074067;28;20197;-72
2022/11/06 00:52:06;;;;;;;77.63;17.52;;;7.10;1.00;;;;;;5075018;28;20211;-71
2022/11/06 00:54:33;;;;;;;77.45;16.73;;;7.30;1.00;;;;;;5074769;28;20208;-71
2022/11/06 00:57:00;;;;;;;78.32;18.10;;;7.30;1.00;;;;;;5074885;28;20228;-71
2022/11/06 00:59:28;;;;;;;81.85;18.52;;;7.20;1.00;;;;;;5073945;28;20225;-71
2022/11/06 01:01:54;;;;;;;80.28;19.05;;;7.30;1.00;;;;;;5074731;28;20212;-71
2022/11/06 01:04:23;;;;;;;76.30;17.70;;;7.30;1.00;;;;;;5074416;28;20209;-71
2022/11/06 01:06:52;;;;;;;80.65;18.25;;;7.30;1.00;;;;;;5074369;28;20216;-71
2022/11/06 01:09:21;;;;;;;78.32;19.60;;;7.30;1.00;;;;;;5073712;28;20209;-71
2022/11/06 01:11:49;;;;;;;78.63;19.25;;;7.30;1.00;;;;;;5074749;28;20201;-71
2022/11/06 01:14:18;;;;;;;83.60;20.40;;;7.40;1.00;;;;;;5074458;28;20587;-71
2022/11/06 01:16:47;;;;;;;80.80;20.27;;;7.40;1.00;;;;;;5074122;28;20216;-71
2022/11/06 01:19:16;;;;;;;81.30;21.25;;;7.50;1.00;;;;;;5073587;28;20229;-71
2022/11/06 01:21:44;;;;;;;81.13;19.90;;;7.50;1.00;;;;;;5074760;28;20214;-71
2022/11/06 01:24:13;;;;;;;84.22;20.33;;;7.30;1.00;;;;;;5073963;28;20221;-71
2022/11/06 01:26:40;;;;;;;78.80;17.92;;;7.30;1.00;;;;;;5073544;28;20318;-71
2022/11/06 01:29:08;;;;;;;78.93;17.80;;;7.40;1.00;;;;;;5073341;28;20209;-71
2022/11/06 01:31:35;;;;;;;79.13;17.35;;;7.40;1.00;;;;;;5073996;28;20212;-71
2022/11/06 01:34:04;;;;;;;76.63;17.38;;;6.90;1.00;;;;;;5074358;28;20201;-71
2022/11/06 01:36:31;;;;;;;76.68;17.35;;;6.90;1.00;;;;;;5074178;28;20208;-71
2022/11/06 01:39:03;;;;;;;76.00;16.85;;;7.10;1.00;;;;;;5073065;28;20225;-71
2022/11/06 01:41:31;;;;;;;78.43;17.35;;;6.80;1.00;;;;;;5073971;28;20205;-71
2022/11/06 01:44:00;;;;;;;80.03;17.05;;;6.70;1.00;;;;;;5073650;28;20207;-71
2022/11/06 01:46:29;;;;;;;75.43;15.60;;;7.00;1.00;;;;;;5073912;28;20215;-71
2022/11/06 01:49:02;;;;;;;76.63;16.50;;;7.00;1.00;;;;;;5072668;28;20229;-71
2022/11/06 01:51:34;;;;;;;79.60;16.90;;;7.10;1.00;;;;;;5073175;28;20209;-71
2022/11/06 01:54:04;;;;;;;145.38;20.67;;;6.60;1.00;;;;;;5073606;28;20212;-71
2022/11/06 01:56:31;;;;;;;103.78;18.60;;;6.50;1.00;;;;;;5073570;28;20211;-71
2022/11/06 01:58:58;;;;;;;137.82;20.17;;;6.60;1.00;;;;;;5072827;28;20225;-70
2022/11/06 02:01:25;;;;;;;102.93;18.40;;;6.70;1.00;;;;;;5073409;28;20201;-70
2022/11/06 02:03:56;;;;;;;98.82;17.20;;;6.40;1.00;;;;;;5073535;28;20213;-71
2022/11/06 02:06:24;;;;;;;107.13;17.13;;;6.50;1.00;;;;;;5073322;28;20215;-71
2022/11/06 02:08:52;;;;;;;81.65;16.42;;;6.20;1.00;;;;;;5072268;28;20315;-72
2022/11/06 02:11:19;;;;;;;96.97;17.95;;;5.90;1.00;;;;;;5073425;28;20201;-72
2022/11/06 02:13:58;;;;;;;193.90;22.50;;;6.00;1.00;;;;;;5073358;28;20280;-71
2022/11/06 02:16:29;;;;;;;178.27;21.88;;;5.90;1.00;;;;;;5073057;28;20673;-72
2022/11/06 02:19:11;;;;;;;193.15;23.40;;;6.00;1.00;;;;;;5072317;28;20312;-70
2022/11/06 02:22:10;;;;;;;95.78;16.00;;;5.80;1.00;;;;;;5073186;28;20185;-70
2022/11/06 02:24:56;;;;;;;112.43;20.05;;;5.60;1.00;;;;;;5073135;28;20212;-70
2022/11/06 02:27:26;;;;;;;85.35;17.08;;;5.70;1.00;;;;;;5072941;28;20604;-72
2022/11/06 02:29:58;;;;;;;76.97;15.70;;;6.00;1.00;;;;;;5072026;28;20202;-71
2022/11/06 02:32:29;;;;;;;141.15;21.98;;;6.10;1.00;;;;;;5072984;28;20292;-70
2022/11/06 02:34:58;;;;;;;125.00;19.20;;;6.10;1.00;;;;;;5072883;28;20299;-70
2022/11/06 02:37:29;;;;;;;80.68;16.10;;;6.20;1.00;;;;;;5072553;28;20709;-71
2022/11/06 02:39:59;;;;;;;74.28;15.27;;;6.20;1.00;;;;;;5071800;28;20227;-71
2022/11/06 02:42:29;;;;;;;138.27;19.25;;;6.30;1.00;;;;;;5072483;28;20215;-71
2022/11/06 02:44:57;;;;;;;76.75;16.00;;;6.00;1.00;;;;;;5072755;28;20212;-71
2022/11/06 02:47:28;;;;;;;121.75;18.38;;;6.10;1.00;;;;;;5072653;28;20229;-71
2022/11/06 02:49:59;;;;;;;134.18;18.75;;;5.90;1.00;;;;;;5071742;28;20202;-70
2022/11/06 02:52:30;;;;;;;129.45;18.55;;;5.70;1.00;;;;;;5069300;28;20209;-70
2022/11/06 02:55:09;;;;;;;112.20;17.80;;;5.20;1.00;;;;;;5072417;28;20201;-71
2022/11/06 02:57:41;;;;;;;184.80;23.20;;;5.10;1.00;;;;;;5072479;28;20229;-72
2022/11/06 03:00:11;;;;;;;115.82;20.85;;;5.10;1.00;;;;;;5071433;28;20265;-71
2022/11/06 03:02:42;;;;;;;115.80;17.67;;;5.10;1.00;;;;;;5072520;28;20205;-70
2022/11/06 03:05:13;;;;;;;157.38;21.02;;;5.30;1.00;;;;;;5072448;28;20572;-71
2022/11/06 03:07:44;;;;;;;133.02;18.15;;;5.40;1.00;;;;;;5072303;28;20225;-71
2022/11/06 03:10:12;;;;;;;181.90;23.73;;;5.30;1.00;;;;;;5071471;28;20204;-70
2022/11/06 03:12:50;;;;;;;163.73;20.88;;;5.50;1.00;;;;;;5072065;28;20212;-71
2022/11/06 03:15:26;;;;;;;147.63;20.42;;;5.40;1.00;;;;;;5072176;28;20295;-71
2022/11/06 03:17:59;;;;;;;131.23;18.90;;;5.20;1.00;;;;;;5072146;28;20239;-71
2022/11/06 03:20:35;;;;;;;144.00;20.38;;;5.40;1.00;;;;;;5071717;28;20603;-71
2022/11/06 03:23:09;;;;;;;83.00;15.60;;;5.30;1.00;;;;;;5071947;28;20585;-71
2022/11/06 03:25:43;;;;;;;80.05;15.05;;;5.20;1.00;;;;;;5072144;28;20219;-71
2022/11/06 03:28:18;;;;;;;80.13;16.08;;;5.30;1.00;;;;;;5071783;28;20235;-71
2022/11/06 03:30:50;;;;;;;100.05;17.33;;;5.60;1.00;;;;;;5071341;28;20212;-71
2022/11/06 03:33:20;;;;;;;88.20;16.25;;;5.50;1.00;;;;;;5071999;28;20295;-71
2022/11/06 03:35:51;;;;;;;82.25;17.73;;;5.60;1.00;;;;;;5071726;28;20205;-71
2022/11/06 03:38:23;;;;;;;83.65;17.23;;;5.80;1.00;;;;;;5071858;28;20311;-71
2022/11/06 03:40:53;;;;;;;109.50;17.48;;;5.70;1.00;;;;;;5071330;28;20225;-72
2022/11/06 03:43:26;;;;;;;81.35;15.73;;;5.80;1.00;;;;;;5071763;28;20682;-71
2022/11/06 03:45:54;;;;;;;86.60;16.45;;;5.30;1.00;;;;;;5072304;28;20209;-70
2022/11/06 03:48:28;;;;;;;79.85;16.60;;;5.00;1.00;;;;;;5070962;28;20788;-71
2022/11/06 03:51:01;;;;;;;78.35;16.65;;;4.70;1.00;;;;;;5071280;28;20198;-71
2022/11/06 03:53:32;;;;;;;82.43;16.60;;;4.80;1.00;;;;;;5071810;28;20205;-71
2022/11/06 03:56:05;;;;;;;88.18;17.50;;;4.60;1.00;;;;;;5071591;28;20674;-70
2022/11/06 03:58:36;;;;;;;78.57;17.92;;;4.60;1.00;;;;;;5070968;28;20221;-70
2022/11/06 04:01:05;;;;;;;94.95;17.40;;;4.60;1.00;;;;;;5071732;28;20594;-71
2022/11/06 04:03:35;;;;;;;84.43;18.02;;;4.70;1.00;;;;;;5071801;28;20292;-71
2022/11/06 04:06:09;;;;;;;82.40;16.30;;;4.90;1.00;;;;;;5071851;28;20197;-70
2022/11/06 04:14:13;;;;;;;81.10;17.80;;;4.80;1.00;;;;;;5071573;28;20314;-71
2022/11/06 04:16:43;;;;;;;75.00;15.68;;;4.80;1.00;;;;;;5071412;28;20765;-71
2022/11/06 04:19:14;;;;;;;80.05;17.70;;;4.80;1.00;;;;;;5070654;28;20205;-72
2022/11/06 04:21:56;;;;;;;83.72;17.42;;;4.80;1.00;;;;;;5071849;28;20251;-71
2022/11/06 04:27:36;;;;;;;78.22;16.45;;;4.60;1.00;;;;;;5071372;28;20282;-71
2022/11/06 04:30:08;;;;;;;72.72;14.77;;;4.60;1.00;;;;;;5070464;28;20212;-71
2022/11/06 04:32:59;;;;;;;75.65;15.25;;;4.80;1.00;;;;;;5071495;28;20209;-71
2022/11/06 04:35:34;;;;;;;72.47;15.05;;;5.10;1.00;;;;;;5071331;28;20242;-71
2022/11/06 04:38:05;;;;;;;78.22;15.63;;;4.80;1.00;;;;;;5071129;28;20231;-72
2022/11/06 04:40:39;;;;;;;79.95;16.48;;;4.70;1.00;;;;;;5071050;28;20224;-70
2022/11/06 04:43:12;;;;;;;76.00;16.02;;;4.80;1.00;;;;;;5071479;28;20209;-71
2022/11/06 04:45:45;;;;;;;75.78;13.75;;;5.00;1.00;;;;;;5071186;28;20209;-71
2022/11/06 04:48:13;;;;;;;73.43;14.43;;;5.50;1.00;;;;;;5071128;28;20323;-70
2022/11/06 04:50:44;;;;;;;84.68;15.20;;;5.60;1.00;;;;;;5070355;28;20197;-71
2022/11/06 04:53:12;;;;;;;73.53;15.05;;;5.30;1.00;;;;;;5071319;28;20209;-73
2022/11/06 04:55:46;;;;;;;72.18;14.80;;;5.50;1.00;;;;;;5071193;28;20202;-72
2022/11/06 04:58:13;;;;;;;75.60;13.85;;;5.60;1.00;;;;;;5071037;28;20225;-73
2022/11/06 05:00:45;;;;;;;75.50;14.02;;;5.70;1.00;;;;;;5071506;28;20221;-72
2022/11/06 05:03:12;;;;;;;77.15;16.02;;;5.50;1.00;;;;;;5074208;28;20243;-71
2022/11/06 05:05:39;;;;;;;77.38;14.70;;;5.50;1.00;;;;;;5074793;28;20205;-71
2022/11/06 05:08:06;;;;;;;74.72;16.45;;;5.30;1.00;;;;;;5074691;28;20225;-71
2022/11/06 05:10:33;;;;;;;72.00;13.98;;;4.90;1.00;;;;;;5073507;28;20681;-71
2022/11/06 05:12:59;;;;;;;73.25;14.35;;;4.90;1.00;;;;;;5074553;28;20207;-72
2022/11/06 05:15:27;;;;;;;74.95;13.95;;;5.10;1.00;;;;;;5074356;28;20205;-71
2022/11/06 05:17:57;;;;;;;79.72;14.05;;;4.70;1.00;;;;;;5074082;28;20243;-71
2022/11/06 05:20:24;;;;;;;91.32;15.27;;;4.40;1.00;;;;;;5073378;28;20228;-72
2022/11/06 05:22:59;;;;;;;72.28;14.68;;;4.60;1.00;;;;;;5074241;28;20223;-71
2022/11/06 05:25:28;;;;;;;121.45;17.13;;;4.60;1.00;;;;;;5074289;28;20574;-71
2022/11/06 05:27:55;;;;;;;73.35;12.93;;;4.90;1.00;;;;;;5074048;28;20229;-75
2022/11/06 05:30:22;;;;;;;74.00;15.00;;;5.40;1.00;;;;;;5073453;28;20572;-73
2022/11/06 05:32:49;;;;;;;71.25;13.30;;;5.70;1.00;;;;;;5074220;28;20231;-71
2022/11/06 05:35:19;;;;;;;77.03;14.10;;;5.80;1.00;;;;;;5074124;28;20207;-71
2022/11/06 05:37:46;;;;;;;74.47;14.45;;;5.90;1.00;;;;;;5073952;28;20224;-71
2022/11/06 05:40:13;;;;;;;87.95;15.93;;;5.90;1.00;;;;;;5073138;28;20236;-71
2022/11/06 05:42:40;;;;;;;90.20;15.13;;;6.00;1.00;;;;;;5073746;28;20202;-71
2022/11/06 05:45:08;;;;;;;120.80;16.85;;;6.20;1.00;;;;;;5074020;28;20301;-72
2022/11/06 05:47:35;;;;;;;95.95;15.77;;;6.10;1.00;;;;;;5073767;28;20235;-71
2022/11/06 05:50:02;;;;;;;73.13;13.02;;;6.00;1.00;;;;;;5072767;28;20673;-71
2022/11/06 05:52:30;;;;;;;119.50;16.95;;;6.00;1.00;;;;;;5073743;28;20209;-73
2022/11/06 05:54:56;;;;;;;71.68;13.20;;;6.00;1.00;;;;;;5073570;28;20678;-72
2022/11/06 05:57:23;;;;;;;94.35;16.33;;;6.00;1.00;;;;;;5073470;28;20225;-71
2022/11/06 05:59:50;;;;;;;207.73;21.55;;;6.00;1.00;;;;;;5072956;28;20227;-71
2022/11/06 06:02:17;;;;;;;117.50;16.08;;;5.90;1.00;;;;;;5073333;28;20221;-72
2022/11/06 06:04:44;;;;;;;93.47;15.77;;;5.40;1.00;;;;;;5073643;28;20293;-71
2022/11/06 06:07:11;;;;;;;110.45;14.60;;;5.40;1.00;;;;;;5073206;28;20316;-71
2022/11/06 06:09:39;;;;;;;131.07;16.80;;;5.30;1.00;;;;;;5072571;28;20227;-71
2022/11/06 06:12:06;;;;;;;91.10;14.18;;;4.60;1.00;;;;;;5072677;28;20197;-71
2022/11/06 06:14:33;;;;;;;68.40;12.15;;;4.40;1.00;;;;;;5073373;28;20212;-73
2022/11/06 06:17:00;;;;;;;82.32;14.20;;;4.60;1.00;;;;;;5073133;28;20231;-71
2022/11/06 06:19:26;;;;;;;70.32;11.90;;;5.00;1.00;;;;;;5072336;28;20205;-71
2022/11/06 06:21:53;;;;;;;137.65;17.75;;;5.20;1.00;;;;;;5072978;28;20247;-72
2022/11/06 06:24:20;;;;;;;162.50;19.75;;;5.20;1.00;;;;;;5072897;28;20209;-71
2022/11/06 06:26:48;;;;;;;157.00;17.25;;;4.90;1.00;;;;;;5073179;28;20209;-71
2022/11/06 06:29:15;;;;;;;184.80;21.23;;;4.80;1.00;;;;;;5072481;28;20209;-71
2022/11/06 06:31:42;;;;;;;164.43;17.75;;;4.60;1.00;;;;;;5072797;28;20665;-72
2022/11/06 06:34:09;;;;;;;160.02;19.77;;;4.40;1.00;;;;;;5072979;28;20205;-71
2022/11/06 06:36:35;;;;;;;164.88;21.25;;;4.90;1.00;;;;;;5072750;28;20205;-71
2022/11/06 06:39:02;;;;;;;122.10;16.17;;;4.90;1.00;;;;;;5071837;28;20433;-72
2022/11/06 06:41:29;;;;;;;137.95;17.55;;;5.10;1.00;;;;;;5072857;28;20310;-71
2022/11/06 06:43:57;;;;;;;96.45;15.18;;;5.30;1.00;;;;;;5072783;28;20217;-73
2022/11/06 06:46:24;;;;;;;96.05;14.85;;;5.40;1.00;;;;;;5072661;28;20232;-72
2022/11/06 06:48:51;;;;;;;116.43;14.93;;;5.50;1.00;;;;;;5071807;28;20221;-71
2022/11/06 06:51:18;;;;;;;141.60;17.60;;;5.30;1.00;;;;;;5072148;28;20197;-71
2022/11/06 06:53:44;;;;;;;116.90;16.38;;;5.40;1.00;;;;;;5072431;28;20635;-71
2022/11/06 06:56:11;;;;;;;73.30;12.00;;;5.30;1.00;;;;;;5072688;28;20201;-71
2022/11/06 06:58:38;;;;;;;84.85;13.93;;;5.00;1.00;;;;;;5071515;28;20225;-73
2022/11/06 07:01:09;;;;;;;123.97;15.75;;;5.30;1.00;;;;;;5072293;28;20225;-71
2022/11/06 07:03:37;;;;;;;78.95;14.55;;;4.80;1.00;;;;;;5072558;28;20209;-71
2022/11/06 07:06:04;;;;;;;151.55;17.17;;;4.80;1.00;;;;;;5072163;28;20208;-71
2022/11/06 07:08:32;;;;;;;128.77;15.30;;;4.70;1.00;;;;;;5072077;28;20239;-76
2022/11/06 07:11:00;;;;;;;85.20;13.05;;;4.70;1.00;;;;;;5072329;28;20211;-72
2022/11/06 07:13:27;;;;;;;134.00;16.60;;;4.70;1.00;;;;;;5072224;28;20212;-72
2022/11/06 07:15:54;;;;;;;115.93;15.82;;;4.60;1.00;;;;;;5071842;28;20315;-71
2022/11/06 07:18:22;;;;;;;142.90;20.30;;;4.60;1.00;;;;;;5071934;28;20316;-71
2022/11/06 07:20:49;;;;;;;96.43;14.60;;;4.60;1.00;;;;;;5071221;28;20225;-71
2022/11/06 07:23:16;;;;;;;107.53;15.20;;;4.70;1.00;;;;;;5071243;28;20221;-71
2022/11/06 07:25:43;;;;;;;85.10;14.38;;;4.40;1.00;;;;;;5072403;28;20231;-72
2022/11/06 07:28:10;;;;;;;73.35;14.55;;;4.20;1.00;;;;;;5071999;28;20233;-72
2022/11/06 07:30:37;;;;;;;74.45;14.00;;;4.30;1.00;;;;;;5071278;28;20212;-71
2022/11/06 07:33:05;;;;;;;81.32;12.90;;;4.50;1.00;;;;;;5072041;28;20700;-72
2022/11/06 07:35:35;;;;;;;89.78;13.60;;;4.60;1.00;;;;;;5072311;28;20215;-72
2022/11/06 07:38:04;;;;;;;88.80;14.85;;;4.80;1.00;;;;;;5072072;28;20647;-71
2022/11/06 07:40:31;;;;;;;80.68;15.23;;;4.80;1.00;;;;;;5071618;28;20224;-71
2022/11/06 07:43:03;;;;;;;79.95;14.57;;;4.90;1.00;;;;;;5071869;28;20657;-72
2022/11/06 07:45:30;;;;;;;85.10;14.65;;;4.60;1.00;;;;;;5071698;28;20296;-72
2022/11/06 07:47:57;;;;;;;127.63;18.08;;;4.50;1.00;;;;;;5071585;28;20235;-71
2022/11/06 07:50:24;;;;;;;82.22;16.83;;;4.30;1.00;;;;;;5071025;28;20205;-73
2022/11/06 07:52:52;;;;;;;75.13;14.25;;;4.30;1.00;;;;;;5071814;28;20196;-71
2022/11/06 07:55:19;;;;;;;71.97;14.35;;;4.30;1.00;;;;;;5071867;28;20291;-71
2022/11/06 07:57:46;;;;;;;72.60;13.43;;;4.40;1.00;;;;;;5071649;28;20278;-71
2022/11/06 08:00:14;;;;;;;74.32;14.13;;;4.60;1.00;;;;;;5070773;28;20295;-71
2022/11/06 08:02:41;;;;;;;74.28;13.95;;;4.70;1.00;;;;;;5071466;28;20261;-71
2022/11/06 08:05:08;;;;;;;73.75;13.88;;;4.60;1.00;;;;;;5071683;28;20211;-70
2022/11/06 08:07:35;;;;;;;73.70;14.77;;;4.60;1.00;;;;;;5071468;28;20221;-70
2022/11/06 08:10:04;;;;;;;75.18;14.10;;;4.70;1.00;;;;;;5070837;28;20209;-71
2022/11/06 08:12:31;;;;;;;72.40;12.85;;;4.70;1.00;;;;;;5071662;28;20204;-71
2022/11/06 08:14:58;;;;;;;72.80;13.88;;;5.00;1.00;;;;;;5071317;28;20219;-70
2022/11/06 08:17:24;;;;;;;75.32;15.40;;;5.10;1.00;;;;;;5071368;28;20713;-71
2022/11/06 08:19:51;;;;;;;74.32;13.82;;;5.40;1.00;;;;;;5070877;28;20586;-70
2022/11/06 08:22:18;;;;;;;73.82;15.23;;;5.70;1.00;;;;;;5071357;28;20231;-70
2022/11/06 08:24:45;;;;;;;74.30;15.43;;;5.80;1.00;;;;;;5071673;28;20201;-71
2022/11/06 08:27:13;;;;;;;73.53;15.50;;;5.90;1.00;;;;;;5071235;28;20231;-71
2022/11/06 08:29:40;;;;;;;78.68;15.32;;;6.00;1.00;;;;;;5070490;28;20211;-70
2022/11/06 08:32:07;;;;;;;75.25;14.00;;;5.80;1.00;;;;;;5071519;28;20205;-72
2022/11/06 08:34:34;;;;;;;72.88;14.05;;;6.10;1.00;;;;;;5072525;28;20205;-71
2022/11/06 08:37:01;;;;;;;74.50;15.70;;;6.60;1.00;;;;;;5075208;28;20308;-70
2022/11/06 08:39:28;;;;;;;72.50;14.27;;;6.60;1.00;;;;;;5074208;28;20216;-71
2022/11/06 08:41:55;;;;;;;72.10;12.82;;;7.00;1.00;;;;;;5074950;28;20232;-70
2022/11/06 08:44:24;;;;;;;73.07;13.50;;;7.00;1.00;;;;;;5075211;28;20676;-71
2022/11/06 08:46:51;;;;;;;74.70;14.20;;;7.00;1.00;;;;;;5075102;28;20212;-71
2022/11/06 08:49:18;;;;;;;73.55;13.70;;;7.30;1.00;;;;;;5074364;28;20579;-71
2022/11/06 08:51:45;;;;;;;70.35;13.00;;;7.10;1.00;;;;;;5074727;28;20201;-71
2022/11/06 08:54:12;;;;;;;72.40;13.75;;;7.10;1.00;;;;;;5074784;28;20605;-71
2022/11/06 08:56:38;;;;;;;71.68;13.90;;;7.20;1.00;;;;;;5074563;28;20212;-70
2022/11/06 08:59:05;;;;;;;75.85;13.07;;;7.70;1.00;;;;;;5074075;28;20212;-70
2022/11/06 09:01:33;;;;;;;71.60;13.20;;;7.90;1.00;;;;;;5074830;28;20222;-70
2022/11/06 09:04:00;;;;;;;71.77;13.20;;;8.00;1.00;;;;;;5074629;28;20206;-70
2022/11/06 09:06:27;;;;;;;71.40;13.23;;;8.30;1.00;;;;;;5074561;28;20451;-72
2022/11/06 09:08:54;;;;;;;71.67;12.50;;;8.40;1.00;;;;;;5073541;28;20862;-74
2022/11/06 09:11:21;;;;;;;72.10;12.83;;;8.70;1.00;;;;;;5074661;28;20458;-70
2022/11/06 09:13:47;;;;;;;68.90;12.17;;;8.90;1.00;;;;;;5074562;28;20451;-70
2022/11/06 09:16:14;;;;;;;68.20;11.73;;;9.30;1.00;;;;;;5074308;28;20545;-71
2022/11/06 09:18:43;;;;;;;66.50;11.60;;;9.40;1.00;;;;;;5073582;28;20562;-71
2022/11/06 09:21:10;;;;;;;71.27;12.20;;;9.60;1.00;;;;;;5074342;28;20444;-70
2022/11/06 09:23:37;;;;;;;70.87;11.37;;;9.60;1.00;;;;;;5074210;28;20459;-71
2022/11/06 09:26:03;;;;;;;67.43;11.67;;;10.40;1.00;;;;;;5074209;28;21002;-71
2022/11/06 09:28:30;;;;;;;66.67;10.70;;;13.70;1.00;;;;;;5073844;28;20471;-71
2022/11/06 09:30:57;;;;;;;66.77;10.07;;;16.90;1.00;;;;;;5073954;28;20451;-71
2022/11/06 09:33:24;;;;;;;65.43;9.77;;;19.40;1.00;;;;;;5074451;28;20822;-72
2022/11/06 09:35:52;;;;;;;64.50;9.90;;;20.60;99.90;;;;;;5074007;28;20455;-72
2022/11/06 09:38:19;;;;;;;65.30;10.00;;;22.00;99.90;;;;;;5073741;28;20479;-71
2022/11/06 09:40:50;;;;;;;64.73;9.97;;;23.30;99.90;;;;;;5073456;28;20961;-72
2022/11/06 09:43:31;;;;;;;63.37;9.07;;;23.70;99.90;;;;;;5074111;28;20487;-71
2022/11/06 09:46:05;;;;;;;63.90;9.37;;;21.60;99.90;;;;;;5073435;28;20442;-72
2022/11/06 09:48:37;;;;;;;65.40;8.50;;;22.20;99.90;;;;;;5073081;28;20845;-71
2022/11/06 09:51:16;;;;;;;64.53;9.60;;;22.60;99.90;;;;;;5073909;28;20463;-72
2022/11/06 09:53:47;;;;;;;62.90;9.47;;;23.60;99.90;;;;;;5074024;28;20451;-72
2022/11/06 09:56:16;;;;;;;64.80;10.60;;;24.80;99.90;;;;;;5073685;28;20534;-72
2022/11/06 09:58:44;;;;;;;64.77;10.17;;;25.80;99.90;;;;;;5072708;28;20470;-72
2022/11/06 10:01:16;;;;;;;64.60;9.90;;;27.20;99.90;;;;;;5073624;28;20835;-73
2022/11/06 10:03:49;;;;;;;62.87;8.93;;;27.80;99.90;;;;;;5073478;28;20530;-73
2022/11/06 10:06:18;;;;;;;63.70;9.37;;;28.10;99.90;;;;;;5073518;28;20444;-72
2022/11/06 10:08:45;;;;;;;64.73;9.93;;;28.50;99.90;;;;;;5073061;28;20780;-72
2022/11/06 10:11:33;;;;;;;63.10;9.33;;;28.80;99.90;;;;;;5073368;28;20818;-72
2022/11/06 10:14:12;;;;;;;63.80;8.80;;;29.10;99.90;;;;;;5073494;28;20459;-72
2022/11/06 10:16:46;;;;;;;66.90;10.30;;;28.40;99.90;;;;;;5073397;28;20668;-72
2022/11/06 10:19:25;;;;;;;63.27;10.13;;;27.50;99.90;;;;;;5072536;28;20815;-72
2022/11/06 10:22:03;;;;;;;63.83;9.97;;;25.80;99.90;;;;;;5072878;28;21059;-72
2022/11/06 10:24:37;;;;;;;66.07;11.10;;;25.10;99.90;;;;;;5073324;28;20447;-71
2022/11/06 10:27:11;;;;;;;65.37;11.07;;;24.10;99.90;;;;;;5072859;28;20558;-72
2022/11/06 10:29:57;;;;;;;64.77;10.13;;;23.40;99.90;;;;;;5072346;28;21014;-71
2022/11/06 10:33:00;;;;;;;63.70;9.90;;;22.70;99.90;;;;;;5072848;28;20530;-72
2022/11/06 10:35:33;;;;;;;63.87;9.10;;;22.20;99.90;;;;;;5073155;28;20447;-71
2022/11/06 10:38:07;;;;;;;67.77;10.63;;;21.10;99.90;;;;;;5072795;28;20478;-73
2022/11/06 10:40:34;;;;;;;65.50;9.73;;;21.60;99.90;;;;;;5071934;28;20652;-71
2022/11/06 10:43:09;;;;;;;64.37;9.73;;;21.70;99.90;;;;;;5072887;28;20478;-72
2022/11/06 10:45:39;;;;;;;64.00;10.10;;;22.00;99.90;;;;;;5072937;28;20439;-72
2022/11/06 10:48:20;;;;;;;63.50;9.73;;;23.20;99.90;;;;;;5072617;28;20566;-72
2022/11/06 10:50:56;;;;;;;63.90;9.50;;;22.10;99.90;;;;;;5071922;28;20443;-72
2022/11/06 10:53:34;;;;;;;63.10;9.07;;;21.50;99.90;;;;;;5072478;28;20447;-71
2022/11/06 10:56:24;;;;;;;63.10;9.27;;;22.00;99.90;;;;;;5072545;28;20533;-72
2022/11/06 10:58:53;;;;;;;65.27;9.73;;;22.40;99.90;;;;;;5071478;28;20485;-72
2022/11/06 11:01:19;;;;;;;64.57;9.90;;;22.30;99.90;;;;;;5072259;28;20473;-72
2022/11/06 11:03:48;;;;;;;62.57;8.73;;;21.90;99.90;;;;;;5072421;28;20475;-71
2022/11/06 11:06:15;;;;;;;64.83;9.40;;;21.20;99.90;;;;;;5072418;28;20455;-72
2022/11/06 11:08:45;;;;;;;64.87;10.13;;;20.10;99.90;;;;;;5071508;28;20464;-71
2022/11/06 11:11:25;;;;;;;66.10;9.20;;;19.30;99.90;;;;;;5072125;28;20944;-72
2022/11/06 11:14:14;;;;;;;63.10;8.80;;;18.20;99.90;;;;;;5072030;28;20947;-71
2022/11/06 11:16:44;;;;;;;64.00;8.77;;;18.20;99.90;;;;;;5072251;28;20913;-71
2022/11/06 11:19:25;;;;;;;64.17;8.17;;;18.50;99.90;;;;;;5071502;28;20540;-72
2022/11/06 11:21:54;;;;;;;63.40;8.43;;;19.40;99.90;;;;;;5071974;28;20459;-72
2022/11/06 11:24:22;;;;;;;61.90;7.60;;;19.60;99.90;;;;;;5071918;28;20459;-71
2022/11/06 11:26:52;;;;;;;63.60;8.17;;;19.60;99.90;;;;;;5072094;28;20455;-71
2022/11/06 11:29:24;;;;;;;60.20;6.10;;;19.90;99.90;;;;;;5071199;28;20509;-71
2022/11/06 11:31:54;;;;;;;61.97;6.10;;;19.90;99.90;;;;;;5072111;28;20451;-71
2022/11/06 11:34:23;;;;;;;60.77;6.17;;;19.50;99.90;;;;;;5071772;28;20466;-71
2022/11/06 11:36:59;;;;;;;60.60;5.87;;;19.50;99.90;;;;;;5072236;28;20962;-72
2022/11/06 11:39:31;;;;;;;60.40;5.83;;;19.30;99.90;;;;;;5071437;28;20457;-72
2022/11/06 11:42:17;;;;;;;60.87;5.67;;;19.00;99.90;;;;;;5072174;28;20500;-73
2022/11/06 11:44:44;;;;;;;59.57;5.20;;;20.30;99.90;;;;;;5072094;28;20451;-73
2022/11/06 11:47:21;;;;;;;60.93;5.40;;;20.70;99.90;;;;;;5071919;28;20554;-72
2022/11/06 11:49:48;;;;;;;60.83;5.90;;;20.20;99.90;;;;;;5071205;28;20447;-72
2022/11/06 11:52:19;;;;;;;59.40;5.07;;;20.10;99.90;;;;;;5071559;28;20815;-72
2022/11/06 11:54:51;;;;;;;58.97;4.63;;;21.30;99.90;;;;;;5071769;28;20450;-73
2022/11/06 11:57:20;;;;;;;60.53;5.50;;;21.60;99.90;;;;;;5071849;28;20477;-71
2022/11/06 11:59:49;;;;;;;59.53;4.57;;;22.70;99.90;;;;;;5070787;28;20439;-72
2022/11/06 12:02:20;;;;;;;59.57;4.50;;;23.20;99.90;;;;;;5071846;28;20491;-72
2022/11/06 12:04:50;;;;;;;58.60;4.43;;;23.70;99.90;;;;;;5071784;28;20458;-72
2022/11/06 12:07:24;;;;;;;58.90;4.40;;;24.30;99.90;;;;;;5071776;28;20834;-72
2022/11/06 12:09:53;;;;;;;59.50;4.40;;;25.40;99.90;;;;;;5072670;28;20462;-72
2022/11/06 12:12:22;;;;;;;58.87;4.27;;;26.40;99.90;;;;;;5075471;28;20451;-72
2022/11/06 12:15:05;;;;;;;59.57;4.83;;;24.90;99.90;;;;;;5075778;28;20450;-72
2022/11/06 12:17:33;;;;;;;59.20;4.43;;;23.90;99.90;;;;;;5075576;28;20474;-72
2022/11/06 12:20:01;;;;;;;59.33;4.60;;;23.00;99.90;;;;;;5074882;28;20804;-72
2022/11/06 12:22:34;;;;;;;59.20;4.47;;;23.00;99.90;;;;;;5075378;28;20483;-72
2022/11/06 12:25:08;;;;;;;58.70;4.37;;;23.30;99.90;;;;;;5075350;28;20455;-73
2022/11/06 12:27:41;;;;;;;58.40;4.10;;;23.00;99.90;;;;;;5075606;28;20467;-72
2022/11/06 12:30:11;;;;;;;59.80;4.50;;;21.50;99.90;;;;;;5074627;28;20547;-72
2022/11/06 12:32:53;;;;;;;59.30;4.83;;;21.30;99.90;;;;;;5075195;28;21000;-72
2022/11/06 12:35:26;;;;;;;59.50;4.90;;;21.20;99.90;;;;;;5075074;28;20451;-72
2022/11/06 12:38:03;;;;;;;58.93;4.60;;;22.00;99.90;;;;;;5075252;28;20471;-73
2022/11/06 12:40:35;;;;;;;58.87;4.70;;;22.30;99.90;;;;;;5074517;28;20443;-72
2022/11/06 12:43:11;;;;;;;59.00;4.83;;;22.30;99.90;;;;;;5075014;28;20483;-72
2022/11/06 12:45:59;;;;;;;59.17;4.37;;;23.00;99.90;;;;;;5074839;28;20454;-72
2022/11/06 12:48:43;;;;;;;59.60;4.80;;;22.20;99.90;;;;;;5074883;28;20841;-72
2022/11/06 12:51:17;;;;;;;59.10;4.90;;;22.70;99.90;;;;;;5074883;28;20458;-73
2022/11/06 12:53:57;;;;;;;58.77;4.60;;;22.10;99.90;;;;;;5074861;28;20454;-72
2022/11/06 12:56:33;;;;;;;58.90;4.60;;;21.40;99.90;;;;;;5074995;28;20854;-73
2022/11/06 12:59:21;;;;;;;59.67;5.30;;;21.60;99.90;;;;;;5073990;28;20473;-73
2022/11/06 13:02:00;;;;;;;59.07;4.40;;;19.90;99.90;;;;;;5074755;28;20473;-73
2022/11/06 13:04:36;;;;;;;59.80;4.87;;;19.20;99.90;;;;;;5074438;28;20524;-72
2022/11/06 13:07:26;;;;;;;59.37;4.93;;;18.80;99.90;;;;;;5074706;28;20532;-73